Time;durP1;ratioP1;P1;durP2;ratioP2;P2;SDS_P1;SDS_P2;PMS_P1;PMS_P2;Temp;Humidity;BMP_temperature;BMP_pressure;BME280_temperature;BME280_humidity;BME280_pressure;Samples;Min_cycle;Max_cycle;Signal;HPM_P1;HPM_P2
2023/07/25 00:01:03;;;;;;;2.63;1.90;;;18.30;73.20;;;;;;5045536;28;20037;-61
2023/07/25 00:03:29;;;;;;;4.03;2.30;;;18.30;73.20;;;;;;5045829;28;20025;-61
2023/07/25 00:05:55;;;;;;;4.18;2.40;;;18.20;73.30;;;;;;5040294;28;20033;-61
2023/07/25 00:08:20;;;;;;;5.00;2.45;;;18.20;73.50;;;;;;5036012;28;20362;-61
2023/07/25 00:10:46;;;;;;;2.33;2.13;;;18.20;73.60;;;;;;5048241;28;20041;-61
2023/07/25 00:13:12;;;;;;;5.57;2.40;;;18.20;73.70;;;;;;5044559;28;20029;-61
2023/07/25 00:15:37;;;;;;;3.38;2.03;;;18.20;73.60;;;;;;5047281;28;20025;-60
2023/07/25 00:18:04;;;;;;;4.97;2.10;;;18.20;73.50;;;;;;5034330;28;20056;-60
2023/07/25 00:20:30;;;;;;;3.28;2.40;;;18.20;73.50;;;;;;5049514;28;20491;-61
2023/07/25 00:22:56;;;;;;;3.33;2.17;;;18.20;73.60;;;;;;5041828;28;20022;-60
2023/07/25 00:25:21;;;;;;;2.22;1.83;;;18.20;73.70;;;;;;5047237;28;20021;-61
2023/07/25 00:27:47;;;;;;;2.67;1.92;;;18.20;73.80;;;;;;5042862;28;20087;-60
2023/07/25 00:30:13;;;;;;;3.55;2.00;;;18.20;73.70;;;;;;5036802;28;20028;-61
2023/07/25 00:32:38;;;;;;;2.05;1.85;;;18.20;73.70;;;;;;5040646;28;20419;-60
2023/07/25 00:35:04;;;;;;;4.22;2.15;;;18.20;73.70;;;;;;5029581;28;20040;-60
2023/07/25 00:37:30;;;;;;;4.55;2.53;;;18.20;73.60;;;;;;5032444;28;20025;-61
2023/07/25 00:39:56;;;;;;;5.88;2.15;;;18.20;73.50;;;;;;5044472;28;20176;-61
2023/07/25 00:42:23;;;;;;;7.53;2.30;;;18.20;73.50;;;;;;5035979;28;20541;-60
2023/07/25 00:44:49;;;;;;;3.78;2.10;;;18.20;73.40;;;;;;5045189;28;20021;-61
2023/07/25 00:47:16;;;;;;;6.40;2.20;;;18.10;73.30;;;;;;5035144;28;20041;-62
2023/07/25 00:49:42;;;;;;;4.05;2.25;;;18.20;73.50;;;;;;5047101;28;20025;-61
2023/07/25 00:52:09;;;;;;;3.38;2.33;;;18.10;73.70;;;;;;5036495;28;20029;-60
2023/07/25 00:54:38;;;;;;;3.60;2.22;;;18.10;73.80;;;;;;5044197;28;20021;-61
2023/07/25 00:57:07;;;;;;;3.97;2.38;;;18.10;74.00;;;;;;5047786;28;20033;-62
2023/07/25 00:59:33;;;;;;;3.47;2.25;;;18.10;73.80;;;;;;5040993;28;20036;-61
2023/07/25 01:01:59;;;;;;;8.98;2.38;;;18.10;73.60;;;;;;5041101;28;20037;-62
2023/07/25 01:04:25;;;;;;;3.08;1.83;;;18.10;73.60;;;;;;5044283;28;20036;-61
2023/07/25 01:06:52;;;;;;;11.13;2.38;;;18.10;73.40;;;;;;5030984;28;20029;-61
2023/07/25 01:09:41;;;;;;;4.90;2.10;;;18.00;73.20;;;;;;5038418;28;20055;-61
2023/07/25 01:12:08;;;;;;;7.20;2.42;;;18.00;73.60;;;;;;5045822;28;20025;-62
2023/07/25 01:14:35;;;;;;;12.23;2.45;;;18.00;73.40;;;;;;5048604;28;20029;-60
2023/07/25 01:17:13;;;;;;;4.00;2.15;;;18.00;73.50;;;;;;5039201;28;20502;-60
2023/07/25 01:19:42;;;;;;;5.80;2.22;;;18.00;73.50;;;;;;5042660;28;20364;-60
2023/07/25 01:22:08;;;;;;;4.57;2.20;;;17.90;73.40;;;;;;5039072;28;20036;-61
2023/07/25 01:24:35;;;;;;;5.72;2.47;;;17.90;73.50;;;;;;5047507;28;20025;-60
2023/07/25 01:27:02;;;;;;;4.22;2.53;;;17.90;73.70;;;;;;5038650;28;20029;-60
2023/07/25 01:29:28;;;;;;;4.15;2.28;;;17.90;73.90;;;;;;5043237;28;20028;-60
2023/07/25 01:31:54;;;;;;;5.25;2.22;;;17.90;73.90;;;;;;5047045;28;20064;-60
2023/07/25 01:34:19;;;;;;;7.72;2.30;;;17.90;73.80;;;;;;5026160;28;20021;-60
2023/07/25 01:36:45;;;;;;;3.05;1.92;;;18.10;73.90;;;;;;5041324;28;20111;-62
2023/07/25 01:39:11;;;;;;;3.58;2.28;;;17.80;73.70;;;;;;5038024;28;20064;-59
2023/07/25 01:41:38;;;;;;;7.10;2.20;;;17.80;73.80;;;;;;5039808;28;20025;-59
2023/07/25 01:44:03;;;;;;;3.50;2.03;;;17.80;73.80;;;;;;5032684;28;20033;-61
2023/07/25 01:46:29;;;;;;;13.23;2.67;;;17.80;73.90;;;;;;5045259;28;20035;-61
2023/07/25 01:48:55;;;;;;;2.63;2.10;;;17.80;74.00;;;;;;5040654;28;20025;-61
2023/07/25 01:51:20;;;;;;;6.50;2.00;;;17.80;74.00;;;;;;5043518;28;20107;-60
2023/07/25 01:53:46;;;;;;;6.28;1.85;;;17.80;73.80;;;;;;5042901;28;20448;-61
2023/07/25 01:56:12;;;;;;;6.97;1.83;;;17.80;73.70;;;;;;5040756;28;20045;-61
2023/07/25 01:58:37;;;;;;;6.20;2.88;;;17.80;73.50;;;;;;5038772;28;20041;-61
2023/07/25 02:01:03;;;;;;;6.60;1.70;;;17.80;73.50;;;;;;5047082;28;20018;-61
2023/07/25 02:03:28;;;;;;;4.20;1.70;;;17.80;73.60;;;;;;5051179;28;20023;-61
2023/07/25 02:05:54;;;;;;;2.08;1.67;;;17.70;73.60;;;;;;5033838;28;20112;-61
2023/07/25 02:08:20;;;;;;;6.80;2.38;;;17.70;73.60;;;;;;5042822;28;20028;-61
2023/07/25 02:10:45;;;;;;;3.30;1.75;;;17.70;73.80;;;;;;5042895;28;20033;-61
2023/07/25 02:13:11;;;;;;;5.22;2.05;;;17.70;74.00;;;;;;5041124;28;20032;-61
2023/07/25 02:15:37;;;;;;;6.30;1.95;;;17.70;74.00;;;;;;5047333;28;20033;-61
2023/07/25 02:18:03;;;;;;;2.50;1.70;;;17.70;74.00;;;;;;5046396;28;20021;-59
2023/07/25 02:20:32;;;;;;;5.18;1.77;;;17.70;74.10;;;;;;5037494;28;20087;-60
2023/07/25 02:22:58;;;;;;;2.60;1.73;;;17.70;74.00;;;;;;5047539;28;20379;-62
2023/07/25 02:25:28;;;;;;;4.43;1.80;;;17.70;73.80;;;;;;5047797;28;20021;-60
2023/07/25 02:27:54;;;;;;;7.88;2.00;;;17.60;74.00;;;;;;5045638;28;20033;-60
2023/07/25 02:30:21;;;;;;;7.38;1.90;;;17.60;73.90;;;;;;5027562;28;20040;-60
2023/07/25 02:32:47;;;;;;;11.90;1.95;;;17.60;74.00;;;;;;5042292;28;20508;-60
2023/07/25 02:35:14;;;;;;;4.97;1.85;;;17.60;73.90;;;;;;5046668;28;20116;-59
2023/07/25 02:37:40;;;;;;;3.55;1.88;;;17.60;73.70;;;;;;5044218;28;20017;-62
2023/07/25 02:40:07;;;;;;;4.72;1.77;;;17.60;73.70;;;;;;5036428;28;20033;-60
2023/07/25 02:42:32;;;;;;;5.03;1.55;;;17.60;73.70;;;;;;5050249;28;20021;-60
2023/07/25 02:44:58;;;;;;;3.67;1.75;;;17.50;73.40;;;;;;5044541;28;20036;-60
2023/07/25 02:47:24;;;;;;;5.68;2.17;;;17.60;73.50;;;;;;5034628;28;20021;-60
2023/07/25 02:49:50;;;;;;;2.30;1.98;;;17.50;73.60;;;;;;5047975;28;20025;-60
2023/07/25 02:52:15;;;;;;;5.28;2.30;;;17.50;73.60;;;;;;5030705;28;20383;-60
2023/07/25 02:54:41;;;;;;;4.28;2.00;;;17.50;73.80;;;;;;5041034;28;20105;-61
2023/07/25 02:57:06;;;;;;;4.07;2.08;;;17.50;74.00;;;;;;5047343;28;20494;-60
2023/07/25 02:59:32;;;;;;;7.38;1.95;;;17.40;74.10;;;;;;5035152;28;20041;-60
2023/07/25 03:01:58;;;;;;;6.18;2.30;;;17.50;74.20;;;;;;5038314;28;20029;-61
2023/07/25 03:04:23;;;;;;;3.78;2.13;;;17.40;74.20;;;;;;5048842;28;20021;-61
2023/07/25 03:06:49;;;;;;;4.30;2.10;;;17.50;74.60;;;;;;5047684;28;20154;-60
2023/07/25 03:09:15;;;;;;;6.50;2.25;;;17.40;74.60;;;;;;5043618;28;20488;-60
2023/07/25 03:11:40;;;;;;;10.52;2.28;;;17.50;74.80;;;;;;5039571;28;20036;-61
2023/07/25 03:14:06;;;;;;;5.03;2.25;;;17.50;74.80;;;;;;5046342;28;20025;-60
2023/07/25 03:16:32;;;;;;;7.03;2.30;;;17.50;74.90;;;;;;5046990;28;20025;-60
2023/07/25 03:18:57;;;;;;;3.88;2.42;;;17.50;75.00;;;;;;5048810;28;20037;-60
2023/07/25 03:21:23;;;;;;;5.45;2.20;;;17.50;75.00;;;;;;5028987;28;20029;-62
2023/07/25 03:23:49;;;;;;;8.05;3.45;;;17.60;75.00;;;;;;5048687;28;20384;-60
2023/07/25 03:26:14;;;;;;;5.43;2.38;;;17.60;75.00;;;;;;5048301;28;20036;-61
2023/07/25 03:28:40;;;;;;;5.20;3.00;;;17.60;74.90;;;;;;5045768;28;20037;-60
2023/07/25 03:31:06;;;;;;;5.32;2.70;;;17.60;74.90;;;;;;5041677;28;20117;-60
2023/07/25 03:33:32;;;;;;;9.18;1.85;;;17.60;74.90;;;;;;5046027;28;20056;-60
2023/07/25 03:35:57;;;;;;;5.25;2.03;;;17.60;75.00;;;;;;5048997;28;20059;-60
2023/07/25 03:38:23;;;;;;;5.05;2.38;;;17.60;75.00;;;;;;5043928;28;20033;-61
2023/07/25 03:40:49;;;;;;;2.42;1.98;;;17.60;74.90;;;;;;5039162;28;20025;-60
2023/07/25 03:43:14;;;;;;;4.30;2.17;;;17.60;75.10;;;;;;5045867;28;20503;-60
2023/07/25 03:45:40;;;;;;;6.18;2.13;;;17.60;75.10;;;;;;5037152;28;20383;-61
2023/07/25 03:48:06;;;;;;;4.57;2.55;;;17.60;75.10;;;;;;5040780;28;20476;-61
2023/07/25 03:50:31;;;;;;;9.18;3.20;;;17.70;75.20;;;;;;5040561;28;20024;-60
2023/07/25 03:52:58;;;;;;;8.57;2.30;;;17.60;75.10;;;;;;5047512;28;20555;-61
2023/07/25 03:55:24;;;;;;;6.55;2.58;;;17.60;75.10;;;;;;5043792;28;20344;-60
2023/07/25 03:57:50;;;;;;;5.65;2.20;;;17.70;75.10;;;;;;5044033;28;20025;-60
2023/07/25 04:00:16;;;;;;;5.57;2.55;;;17.70;75.10;;;;;;5042878;28;20025;-60
2023/07/25 04:02:42;;;;;;;4.68;2.78;;;17.70;75.10;;;;;;5034082;28;20033;-61
2023/07/25 04:05:08;;;;;;;11.30;2.75;;;17.70;75.90;;;;;;5044362;28;20040;-60
2023/07/25 04:07:34;;;;;;;10.75;3.08;;;17.70;75.40;;;;;;5044784;28;20029;-60
2023/07/25 04:10:00;;;;;;;5.60;2.72;;;17.70;75.50;;;;;;5043962;28;20033;-60
2023/07/25 04:12:26;;;;;;;7.40;2.45;;;17.70;75.50;;;;;;5041097;28;20098;-60
2023/07/25 04:14:52;;;;;;;5.00;2.60;;;17.70;75.60;;;;;;5049651;28;20082;-59
2023/07/25 04:17:18;;;;;;;8.65;2.40;;;17.80;75.70;;;;;;5044551;28;20025;-60
2023/07/25 04:19:43;;;;;;;4.45;2.38;;;17.80;75.70;;;;;;5038793;28;20048;-61
2023/07/25 04:22:09;;;;;;;5.60;2.85;;;17.80;75.70;;;;;;5032844;28;20472;-60
2023/07/25 04:24:35;;;;;;;3.63;2.42;;;17.80;75.70;;;;;;5044844;28;20044;-61
2023/07/25 04:27:00;;;;;;;4.13;2.60;;;17.90;75.80;;;;;;5038250;28;20036;-61
2023/07/25 04:29:26;;;;;;;5.13;2.47;;;17.90;75.90;;;;;;5045635;28;20076;-61
2023/07/25 04:31:52;;;;;;;3.67;2.13;;;17.90;75.90;;;;;;5043292;28;20039;-62
2023/07/25 04:34:18;;;;;;;5.30;2.53;;;17.90;75.90;;;;;;5049076;28;20056;-61
2023/07/25 04:36:43;;;;;;;5.88;2.72;;;18.00;76.00;;;;;;5049850;28;20021;-60
2023/07/25 04:39:09;;;;;;;4.15;2.25;;;18.00;75.90;;;;;;4947363;28;20104;-61
2023/07/25 04:41:35;;;;;;;3.85;2.17;;;18.00;76.00;;;;;;5033641;28;20028;-61
2023/07/25 04:44:00;;;;;;;6.40;2.08;;;18.00;76.10;;;;;;5040175;28;20017;-62
2023/07/25 04:46:28;;;;;;;8.77;2.50;;;18.00;76.10;;;;;;5035999;28;20033;-61
2023/07/25 04:48:54;;;;;;;8.02;2.70;;;18.10;76.10;;;;;;5045465;28;20025;-61
2023/07/25 04:51:19;;;;;;;5.55;2.40;;;18.10;76.10;;;;;;5037050;28;20029;-62
2023/07/25 04:53:45;;;;;;;3.67;2.45;;;18.10;76.10;;;;;;5042391;28;20061;-61
2023/07/25 04:56:11;;;;;;;3.70;2.50;;;18.10;76.00;;;;;;5037838;28;20045;-61
2023/07/25 04:58:41;;;;;;;5.57;2.78;;;18.20;75.90;;;;;;5047109;28;20044;-61
2023/07/25 05:01:07;;;;;;;13.75;3.75;;;18.20;75.90;;;;;;5043958;28;20075;-61
2023/07/25 05:03:33;;;;;;;16.90;4.88;;;18.30;76.00;;;;;;5047458;28;20103;-61
2023/07/25 05:05:59;;;;;;;35.38;7.35;;;18.30;75.90;;;;;;5039535;28;20487;-61
2023/07/25 05:08:24;;;;;;;33.95;8.55;;;18.30;75.90;;;;;;5040858;28;20172;-61
2023/07/25 05:10:51;;;;;;;26.95;7.72;;;18.30;76.10;;;;;;5046345;28;20025;-60
2023/07/25 05:13:17;;;;;;;34.58;9.48;;;18.30;76.30;;;;;;5039658;28;20065;-61
2023/07/25 05:15:43;;;;;;;35.33;9.90;;;18.30;76.50;;;;;;5034424;28;20376;-61
2023/07/25 05:18:09;;;;;;;33.17;8.35;;;18.40;76.70;;;;;;5042410;28;20025;-60
2023/07/25 05:20:34;;;;;;;37.35;9.50;;;18.40;76.80;;;;;;5044505;28;20025;-60
2023/07/25 05:23:00;;;;;;;35.17;8.68;;;18.50;76.90;;;;;;5043665;28;20021;-61
2023/07/25 05:25:26;;;;;;;27.13;7.47;;;18.50;77.10;;;;;;5047299;28;20029;-60
2023/07/25 05:27:51;;;;;;;35.10;8.48;;;18.50;77.00;;;;;;5039230;28;20022;-61
2023/07/25 05:30:17;;;;;;;35.25;8.18;;;18.60;77.00;;;;;;5047158;28;20051;-60
2023/07/25 05:32:43;;;;;;;34.17;8.32;;;18.60;77.00;;;;;;5043035;28;20048;-62
2023/07/25 05:35:08;;;;;;;46.05;8.63;;;18.70;77.00;;;;;;5043395;28;20113;-61
2023/07/25 05:37:38;;;;;;;36.80;10.02;;;18.70;77.00;;;;;;5027234;28;20029;-59
2023/07/25 05:40:05;;;;;;;38.95;8.32;;;18.70;77.20;;;;;;4944602;28;20093;-61
2023/07/25 05:42:31;;;;;;;34.25;7.97;;;18.80;77.20;;;;;;5040546;28;20430;-61
2023/07/25 05:44:59;;;;;;;41.17;9.02;;;18.80;77.10;;;;;;5038750;28;20107;-60
2023/07/25 05:47:25;;;;;;;44.40;9.57;;;18.80;77.00;;;;;;5041185;28;20030;-61
2023/07/25 05:49:51;;;;;;;29.25;9.45;;;18.80;76.90;;;;;;5027592;28;20113;-61
2023/07/25 05:52:17;;;;;;;37.22;8.32;;;18.90;77.10;;;;;;5047015;28;20071;-60
2023/07/25 05:54:44;;;;;;;22.80;7.90;;;18.90;77.10;;;;;;5026414;28;20028;-63
2023/07/25 05:57:09;;;;;;;20.27;9.40;;;18.90;77.20;;;;;;5042910;28;20025;-60
2023/07/25 05:59:35;;;;;;;20.17;8.30;;;19.00;77.40;;;;;;5046994;28;20037;-61
2023/07/25 06:02:03;;;;;;;18.42;7.85;;;19.00;77.60;;;;;;5047029;28;20025;-60
2023/07/25 06:04:29;;;;;;;19.38;8.10;;;19.00;77.80;;;;;;5039068;28;20009;-61
2023/07/25 06:06:55;;;;;;;17.30;7.90;;;19.10;77.80;;;;;;5024566;28;20082;-61
2023/07/25 06:09:21;;;;;;;17.23;8.57;;;19.10;77.80;;;;;;5042997;28;20021;-61
2023/07/25 06:11:46;;;;;;;24.77;8.52;;;19.10;78.00;;;;;;5046676;28;20470;-61
2023/07/25 06:14:12;;;;;;;17.73;6.97;;;19.20;78.10;;;;;;5040716;28;20030;-61
2023/07/25 06:16:38;;;;;;;18.60;8.25;;;19.30;78.20;;;;;;5046007;28;20029;-60
2023/07/25 06:19:03;;;;;;;18.63;8.50;;;19.40;77.80;;;;;;5037184;28;20102;-62
2023/07/25 06:21:29;;;;;;;19.23;8.95;;;19.50;77.40;;;;;;5036529;28;20025;-61
2023/07/25 06:23:55;;;;;;;15.05;7.65;;;19.50;77.20;;;;;;5038506;28;20018;-62
2023/07/25 06:26:20;;;;;;;19.10;8.13;;;19.50;77.10;;;;;;5038982;28;20025;-60
2023/07/25 06:28:46;;;;;;;16.02;8.27;;;19.60;77.00;;;;;;5035453;28;20037;-62
2023/07/25 06:31:12;;;;;;;18.80;8.65;;;19.70;77.10;;;;;;5038920;28;20053;-60
2023/07/25 06:33:37;;;;;;;19.13;8.77;;;19.70;76.90;;;;;;5025346;28;20037;-61
2023/07/25 06:36:04;;;;;;;18.98;8.80;;;19.70;76.80;;;;;;5038899;28;20041;-61
2023/07/25 06:38:29;;;;;;;17.30;8.40;;;19.80;76.80;;;;;;4940895;28;20125;-61
2023/07/25 06:40:56;;;;;;;17.75;7.82;;;19.80;76.60;;;;;;5038114;28;20100;-61
2023/07/25 06:43:22;;;;;;;17.65;7.97;;;19.80;76.50;;;;;;5047224;28;20025;-61
2023/07/25 06:45:51;;;;;;;18.30;9.10;;;19.80;76.40;;;;;;5044054;28;20029;-60
2023/07/25 06:48:17;;;;;;;15.05;7.60;;;19.80;76.20;;;;;;5049874;28;20475;-60
2023/07/25 06:50:43;;;;;;;15.57;8.38;;;19.80;76.00;;;;;;5031917;28;20090;-60
2023/07/25 06:53:09;;;;;;;17.20;8.23;;;19.80;75.80;;;;;;5046230;28;20112;-62
2023/07/25 06:55:36;;;;;;;18.08;8.35;;;19.80;75.70;;;;;;5045757;28;20136;-61
2023/07/25 06:58:02;;;;;;;16.45;8.15;;;19.80;75.70;;;;;;5036890;28;20025;-61
2023/07/25 07:00:28;;;;;;;20.88;8.10;;;19.80;75.70;;;;;;5045181;28;20082;-61
2023/07/25 07:02:54;;;;;;;16.77;8.60;;;19.80;75.80;;;;;;5047181;28;20032;-62
2023/07/25 07:05:20;;;;;;;19.55;8.70;;;19.80;76.10;;;;;;5046157;28;20035;-62
2023/07/25 07:07:45;;;;;;;14.93;8.32;;;19.90;76.50;;;;;;5033953;28;20100;-60
2023/07/25 07:10:11;;;;;;;17.63;7.60;;;19.90;76.80;;;;;;5030560;28;20071;-59
2023/07/25 07:12:42;;;;;;;20.38;8.65;;;20.00;77.10;;;;;;5045856;28;20483;-61
2023/07/25 07:15:08;;;;;;;13.43;7.35;;;20.10;77.00;;;;;;5041988;28;20040;-61
2023/07/25 07:17:33;;;;;;;13.65;6.97;;;20.20;76.60;;;;;;5045537;28;20025;-61
2023/07/25 07:20:00;;;;;;;14.65;7.32;;;20.30;76.30;;;;;;5048380;28;20109;-61
2023/07/25 07:22:26;;;;;;;13.13;7.10;;;20.40;76.60;;;;;;5058790;28;20024;-62
2023/07/25 07:24:51;;;;;;;16.38;7.85;;;20.50;76.50;;;;;;5038803;28;20026;-61
2023/07/25 07:27:19;;;;;;;13.43;7.13;;;20.60;76.20;;;;;;5038219;28;20454;-60
2023/07/25 07:29:45;;;;;;;14.23;6.75;;;20.70;76.30;;;;;;5046048;28;20024;-61
2023/07/25 07:32:11;;;;;;;11.82;6.32;;;20.80;76.40;;;;;;5039985;28;20030;-61
2023/07/25 07:34:36;;;;;;;11.98;6.35;;;20.90;75.90;;;;;;5052201;28;20360;-61
2023/07/25 07:37:02;;;;;;;8.02;5.45;;;21.00;75.60;;;;;;5047442;28;20535;-60
2023/07/25 07:39:28;;;;;;;8.85;5.28;;;21.00;75.00;;;;;;4957577;28;20041;-62
2023/07/25 07:41:54;;;;;;;7.47;4.68;;;21.10;74.70;;;;;;5037680;28;20106;-61
2023/07/25 07:44:19;;;;;;;7.97;4.30;;;21.20;74.30;;;;;;5041625;28;20080;-63
2023/07/25 07:46:45;;;;;;;7.00;3.78;;;21.30;74.30;;;;;;5042675;28;20079;-62
2023/07/25 07:49:11;;;;;;;7.55;3.22;;;21.30;73.80;;;;;;5048553;28;20025;-62
2023/07/25 07:51:36;;;;;;;6.60;3.05;;;21.40;73.20;;;;;;5033663;28;20018;-62
2023/07/25 07:54:02;;;;;;;4.57;2.90;;;21.50;73.00;;;;;;5028357;28;20029;-61
2023/07/25 07:56:28;;;;;;;3.45;2.83;;;21.60;71.80;;;;;;5045215;28;20443;-61
2023/07/25 07:58:53;;;;;;;3.33;2.40;;;21.60;71.40;;;;;;5044240;28;20040;-61
2023/07/25 08:01:21;;;;;;;3.17;2.60;;;21.60;71.20;;;;;;5051162;28;20044;-61
2023/07/25 08:03:47;;;;;;;3.65;2.22;;;21.50;70.50;;;;;;5055387;28;20618;-61
2023/07/25 08:06:14;;;;;;;5.65;2.42;;;21.50;70.10;;;;;;5041644;28;20049;-61
2023/07/25 08:08:42;;;;;;;3.08;2.35;;;21.50;70.30;;;;;;5042594;28;20032;-61
2023/07/25 08:11:08;;;;;;;5.95;2.50;;;21.50;70.10;;;;;;5035840;28;20021;-61
2023/07/25 08:13:33;;;;;;;2.38;1.85;;;21.50;70.10;;;;;;5048553;28;20036;-61
2023/07/25 08:16:00;;;;;;;5.00;2.33;;;21.50;69.40;;;;;;5040337;28;20036;-61
2023/07/25 08:18:25;;;;;;;3.15;2.13;;;21.50;69.10;;;;;;5048546;28;20029;-61
2023/07/25 08:20:59;;;;;;;3.38;2.00;;;21.60;69.30;;;;;;5045998;28;20026;-62
2023/07/25 08:23:25;;;;;;;2.40;1.55;;;21.60;68.20;;;;;;5051929;28;20052;-63
2023/07/25 08:25:51;;;;;;;1.63;1.42;;;21.60;68.30;;;;;;5052352;28;20090;-61
2023/07/25 08:28:17;;;;;;;4.78;1.95;;;21.70;68.70;;;;;;5041041;28;20017;-61
2023/07/25 08:30:43;;;;;;;2.83;1.60;;;21.80;68.70;;;;;;5038835;28;20037;-61
2023/07/25 08:33:10;;;;;;;6.63;2.03;;;21.90;68.20;;;;;;5043648;28;20064;-61
2023/07/25 08:35:36;;;;;;;4.28;1.75;;;21.90;68.00;;;;;;5039287;28;20112;-61
2023/07/25 08:38:02;;;;;;;6.70;1.50;;;22.00;67.00;;;;;;5047614;28;20109;-61
2023/07/25 08:40:27;;;;;;;2.47;1.67;;;22.00;67.10;;;;;;5027423;28;20480;-61
2023/07/25 08:43:01;;;;;;;1.45;1.35;;;22.10;67.10;;;;;;5043239;28;20052;-61
2023/07/25 08:45:27;;;;;;;5.82;1.52;;;22.10;66.60;;;;;;5033214;28;20033;-61
2023/07/25 08:47:55;;;;;;;1.63;1.40;;;22.10;66.30;;;;;;5043858;28;20040;-61
2023/07/25 08:50:23;;;;;;;2.63;1.88;;;22.10;66.30;;;;;;5036967;28;20527;-61
2023/07/25 08:52:51;;;;;;;2.38;1.60;;;22.10;66.90;;;;;;5040458;28;20560;-61
2023/07/25 08:55:17;;;;;;;2.60;1.48;;;22.10;66.60;;;;;;5047619;28;20056;-61
2023/07/25 08:57:44;;;;;;;1.58;1.40;;;22.10;66.80;;;;;;5042389;28;20078;-61
2023/07/25 09:00:13;;;;;;;2.13;1.30;;;22.20;66.80;;;;;;5040483;28;20026;-62
2023/07/25 09:02:38;;;;;;;2.05;1.50;;;22.10;66.30;;;;;;5040737;28;20064;-61
2023/07/25 09:05:05;;;;;;;1.83;1.50;;;22.10;65.90;;;;;;5048620;28;20065;-61
2023/07/25 09:07:31;;;;;;;1.95;1.50;;;22.10;65.40;;;;;;5044506;28;20388;-61
2023/07/25 09:09:58;;;;;;;2.42;1.58;;;22.00;65.90;;;;;;5042617;28;20021;-60
2023/07/25 09:12:24;;;;;;;2.35;1.35;;;22.00;65.40;;;;;;5039308;28;20564;-59
2023/07/25 09:14:51;;;;;;;5.20;1.35;;;21.80;65.20;;;;;;5043991;28;20067;-60
2023/07/25 09:17:17;;;;;;;2.88;1.40;;;21.70;65.30;;;;;;5049049;28;20035;-60
2023/07/25 09:19:43;;;;;;;2.28;1.20;;;21.50;65.00;;;;;;5046388;28;20037;-60
2023/07/25 09:22:28;;;;;;;2.03;1.23;;;21.30;65.60;;;;;;5045771;28;20052;-60
2023/07/25 09:24:53;;;;;;;2.33;1.10;;;21.10;66.00;;;;;;5040463;28;20551;-60
2023/07/25 09:27:19;;;;;;;2.25;1.08;;;21.00;66.80;;;;;;5043619;28;20029;-61
2023/07/25 09:29:49;;;;;;;1.90;1.00;;;20.90;67.20;;;;;;5034550;28;20041;-60
2023/07/25 09:32:18;;;;;;;1.42;1.10;;;20.80;67.70;;;;;;5041222;28;20511;-60
2023/07/25 09:34:46;;;;;;;5.75;1.40;;;20.70;67.70;;;;;;5047497;28;20027;-60
2023/07/25 09:37:14;;;;;;;5.00;1.27;;;20.70;68.40;;;;;;5043909;28;20025;-61
2023/07/25 09:39:42;;;;;;;3.42;1.13;;;20.70;68.40;;;;;;4968800;28;20618;-61
2023/07/25 09:42:07;;;;;;;2.85;1.35;;;20.70;68.60;;;;;;5036970;28;20027;-61
2023/07/25 09:44:33;;;;;;;2.83;1.15;;;20.70;69.20;;;;;;5044218;28;20096;-61
2023/07/25 09:46:59;;;;;;;1.98;1.40;;;20.70;69.80;;;;;;5047671;28;20395;-60
2023/07/25 09:49:25;;;;;;;1.38;1.17;;;20.80;69.70;;;;;;5043476;28;20029;-60
2023/07/25 09:51:59;;;;;;;1.58;1.02;;;20.80;69.10;;;;;;5047437;28;20049;-61
2023/07/25 09:54:25;;;;;;;;;;;20.90;69.20;;;;;;5040218;28;20120;-60
2023/07/25 09:56:51;;;;;;;5.38;1.20;;;21.00;69.50;;;;;;5035314;28;20004;-60
2023/07/25 09:59:17;;;;;;;1.52;1.20;;;21.10;70.20;;;;;;5047474;28;20033;-59
2023/07/25 10:01:43;;;;;;;2.28;1.30;;;21.20;71.60;;;;;;5030853;28;20029;-60
2023/07/25 10:04:10;;;;;;;1.83;1.27;;;21.50;70.60;;;;;;5047107;28;20356;-60
2023/07/25 10:06:36;;;;;;;1.10;1.00;;;21.60;70.50;;;;;;5034551;28;20060;-61
2023/07/25 10:09:03;;;;;;;2.40;1.25;;;21.90;69.70;;;;;;5042248;28;20040;-60
2023/07/25 10:11:30;;;;;;;2.50;1.00;;;22.00;68.60;;;;;;5038850;28;20515;-61
2023/07/25 10:13:56;;;;;;;2.10;1.23;;;22.10;68.50;;;;;;5046395;28;20396;-61
2023/07/25 10:16:23;;;;;;;2.70;1.38;;;22.20;68.10;;;;;;5031431;28;20029;-61
2023/07/25 10:18:57;;;;;;;1.65;1.30;;;22.30;68.10;;;;;;5039406;28;20120;-61
2023/07/25 10:21:27;;;;;;;1.48;1.10;;;22.30;68.30;;;;;;5047012;28;20092;-61
2023/07/25 10:24:02;;;;;;;2.17;1.48;;;22.40;68.80;;;;;;5051100;28;20044;-62
2023/07/25 10:26:28;;;;;;;1.60;1.30;;;22.50;68.90;;;;;;5039470;28;20025;-60
2023/07/25 10:28:54;;;;;;;2.05;1.80;;;22.70;68.80;;;;;;5041289;28;20033;-61
2023/07/25 10:31:30;;;;;;;2.00;1.52;;;22.90;69.00;;;;;;5047695;28;20025;-61
2023/07/25 10:33:59;;;;;;;3.47;1.67;;;23.10;69.50;;;;;;5037727;28;20387;-59
2023/07/25 10:36:25;;;;;;;2.05;1.63;;;23.30;68.40;;;;;;5051498;28;20036;-60
2023/07/25 10:38:58;;;;;;;2.60;1.67;;;23.50;67.70;;;;;;5047104;28;20136;-60
2023/07/25 10:41:23;;;;;;;2.10;1.60;;;23.60;67.00;;;;;;5048635;28;20025;-61
2023/07/25 10:43:51;;;;;;;2.03;1.42;;;23.70;65.60;;;;;;5046466;28;20024;-61
2023/07/25 10:46:22;;;;;;;2.88;1.40;;;23.80;65.60;;;;;;5039675;28;20052;-61
2023/07/25 10:48:49;;;;;;;2.58;1.60;;;23.80;65.40;;;;;;5045974;28;20021;-60
2023/07/25 10:51:16;;;;;;;1.92;1.42;;;23.90;64.80;;;;;;5051075;28;20065;-61
2023/07/25 10:54:06;;;;;;;3.80;1.50;;;23.90;65.50;;;;;;5055446;28;20033;-61
2023/07/25 10:56:32;;;;;;;3.75;1.80;;;24.00;67.00;;;;;;5034270;28;20073;-61
2023/07/25 10:59:06;;;;;;;3.50;1.73;;;24.10;66.20;;;;;;5049825;28;20082;-61
2023/07/25 11:01:36;;;;;;;3.05;1.77;;;24.30;65.70;;;;;;5046304;28;20075;-61
2023/07/25 11:04:28;;;;;;;5.10;2.00;;;24.50;66.50;;;;;;5041280;28;20037;-61
2023/07/25 11:06:56;;;;;;;2.20;1.48;;;24.80;64.90;;;;;;5030267;28;20037;-61
2023/07/25 11:09:24;;;;;;;2.75;1.95;;;25.00;64.30;;;;;;5039741;28;20041;-61
2023/07/25 11:11:51;;;;;;;3.95;1.90;;;25.10;62.80;;;;;;5045340;28;20021;-61
2023/07/25 11:14:19;;;;;;;5.63;1.85;;;25.10;61.80;;;;;;5039594;28;20606;-61
2023/07/25 11:16:47;;;;;;;2.97;1.70;;;25.10;61.90;;;;;;5044820;28;20039;-63
2023/07/25 11:19:14;;;;;;;4.80;1.60;;;25.10;61.20;;;;;;5048210;28;20102;-61
2023/07/25 11:21:41;;;;;;;1.77;1.55;;;25.00;61.20;;;;;;5046440;28;20079;-62
2023/07/25 11:24:09;;;;;;;4.80;1.83;;;25.10;62.60;;;;;;5048110;28;20564;-61
2023/07/25 11:26:38;;;;;;;7.45;2.03;;;25.30;62.40;;;;;;5045011;28;20037;-63
2023/07/25 11:29:09;;;;;;;2.83;1.70;;;25.40;61.20;;;;;;5045526;28;20037;-61
2023/07/25 11:31:41;;;;;;;3.45;1.98;;;25.40;61.10;;;;;;5040105;28;20036;-61
2023/07/25 11:34:11;;;;;;;4.50;1.60;;;25.40;60.40;;;;;;5042205;28;20367;-61
2023/07/25 11:36:39;;;;;;;2.67;1.60;;;25.40;59.70;;;;;;5036854;28;20039;-62
2023/07/25 11:39:09;;;;;;;2.10;1.20;;;25.40;60.40;;;;;;4956980;28;20037;-61
2023/07/25 11:41:36;;;;;;;1.15;1.00;;;25.50;58.00;;;;;;5041850;28;20027;-61
2023/07/25 11:44:09;;;;;;;5.50;1.55;;;25.40;55.40;;;;;;5046342;28;20090;-60
2023/07/25 11:46:37;;;;;;;1.63;1.08;;;25.40;53.70;;;;;;5038101;28;20036;-61
2023/07/25 11:49:04;;;;;;;1.20;1.10;;;25.30;56.40;;;;;;5044712;28;20033;-61
2023/07/25 11:51:30;;;;;;;1.27;1.17;;;25.20;55.60;;;;;;5046464;28;20033;-61
2023/07/25 11:53:57;;;;;;;2.42;1.25;;;25.20;54.80;;;;;;5042367;28;20017;-61
2023/07/25 11:56:23;;;;;;;1.42;1.15;;;25.20;54.20;;;;;;5032073;28;20098;-62
2023/07/25 11:58:49;;;;;;;1.23;1.08;;;25.10;53.20;;;;;;5047986;28;20079;-61
2023/07/25 12:01:16;;;;;;;2.35;1.00;;;25.00;53.80;;;;;;5039303;28;20017;-61
2023/07/25 12:03:49;;;;;;;1.58;1.10;;;24.90;53.60;;;;;;5042348;28;20472;-61
2023/07/25 12:06:25;;;;;;;6.13;1.13;;;24.70;54.30;;;;;;5045806;28;20021;-61
2023/07/25 12:08:50;;;;;;;2.60;0.80;;;24.60;56.60;;;;;;5045205;28;20028;-61
2023/07/25 12:11:16;;;;;;;1.20;0.90;;;24.50;57.90;;;;;;5041439;28;20399;-60
2023/07/25 12:13:49;;;;;;;1.15;1.05;;;24.60;58.20;;;;;;5037424;28;20392;-61
2023/07/25 12:16:35;;;;;;;1.70;0.80;;;24.70;58.30;;;;;;5042987;28;20029;-61
2023/07/25 12:19:09;;;;;;;0.82;0.73;;;24.90;58.50;;;;;;5042982;28;20029;-61
2023/07/25 12:21:37;;;;;;;1.52;0.90;;;25.00;57.80;;;;;;5044485;28;20017;-62
2023/07/25 12:24:08;;;;;;;3.53;1.00;;;25.20;56.70;;;;;;5043600;28;20538;-62
2023/07/25 12:26:54;;;;;;;2.03;0.93;;;25.30;56.60;;;;;;5043943;28;20013;-63
2023/07/25 12:29:21;;;;;;;1.10;0.70;;;25.40;55.40;;;;;;5041947;28;20033;-61
2023/07/25 12:31:47;;;;;;;2.45;1.08;;;25.50;55.90;;;;;;5048725;28;20154;-62
2023/07/25 12:34:18;;;;;;;1.55;0.90;;;25.60;54.80;;;;;;5046556;28;20029;-61
2023/07/25 12:36:45;;;;;;;1.73;1.13;;;25.60;54.10;;;;;;5043467;28;20048;-61
2023/07/25 12:39:11;;;;;;;2.38;0.82;;;25.60;53.80;;;;;;5043865;28;20041;-62
2023/07/25 12:41:37;;;;;;;1.40;0.95;;;25.50;52.20;;;;;;5047831;28;20233;-61
2023/07/25 12:44:03;;;;;;;2.33;1.15;;;25.40;51.70;;;;;;5039753;28;20025;-60